Terminal Aerodrome Forecast
Issued by NWS

Home | Current Version | Previous Version | Text Only | Print | Product List | Glossary On
Versions: 1 2 3 4 5 6 7 8 9 10 11 12 13 14 15 16
818
FTUS42 KMHX 302321
TAFPGV
TAF
KPGV 302321Z 3100/3124 13007KT P6SM FEW030 BKN060
     FM311100 17011G17KT 4SM SHRA VCTS SCT007 OVC015CB
     FM311600 18013G22KT P6SM VCTS SCT025CB BKN040
     FM312300 21013G22KT P6SM BKN040
      AMD LTD TO CLD VIS AND WIND=

USA.gov is the U.S. government's official web portal to all federal, state and local government web resources and services.